createdAt,value
2024-01-20T00:00:00.798Z,43.70
2024-01-20T00:01:00.818Z,43.60
2024-01-20T00:02:00.818Z,39.60
2024-01-20T00:03:00.760Z,40.00
2024-01-20T00:04:00.789Z,40.40
2024-01-20T00:05:00.748Z,43.20
2024-01-20T00:06:00.725Z,46.30
2024-01-20T00:07:00.766Z,40.30
2024-01-20T00:08:00.718Z,43.70
2024-01-20T00:09:00.683Z,38.60
2024-01-20T00:10:00.687Z,41.30
2024-01-20T00:11:00.729Z,43.20
2024-01-20T00:12:00.649Z,45.10
2024-01-20T00:13:00.663Z,41.40
2024-01-20T00:14:01.504Z,49.40
2024-01-20T00:15:01.390Z,53.30
2024-01-20T00:16:00.625Z,50.90
2024-01-20T00:17:08.919Z,48.90
2024-01-20T00:18:01.667Z,47.50
2024-01-20T00:19:00.676Z,48.00
2024-01-20T00:20:00.709Z,46.20
2024-01-20T00:21:00.557Z,54.00
2024-01-20T00:22:00.540Z,44.30
2024-01-20T00:23:00.560Z,46.40
2024-01-20T00:24:00.508Z,44.90
2024-01-20T00:25:00.511Z,49.10
2024-01-20T00:26:00.514Z,50.00
2024-01-20T00:27:00.494Z,44.20
2024-01-20T00:28:00.495Z,45.00
2024-01-20T00:29:00.487Z,39.90
2024-01-20T00:30:00.692Z,41.00
2024-01-20T00:31:00.447Z,39.00
2024-01-20T00:32:00.469Z,40.80
2024-01-20T00:33:00.561Z,42.50
2024-01-20T00:34:01.054Z,40.60
2024-01-20T00:35:07.044Z,37.50
2024-01-20T00:36:02.033Z,34.80
2024-01-20T00:37:00.377Z,35.70
2024-01-20T00:38:00.425Z,37.70
2024-01-20T00:39:00.383Z,38.40
2024-01-20T00:40:00.350Z,39.50
2024-01-20T00:41:00.372Z,41.20
2024-01-20T00:42:00.304Z,39.40
2024-01-20T00:43:00.381Z,40.50
2024-01-20T00:44:00.388Z,38.60
2024-01-20T00:45:00.359Z,35.70
2024-01-20T00:46:00.288Z,34.30
2024-01-20T00:47:00.340Z,32.00
2024-01-20T00:48:00.325Z,34.60
2024-01-20T00:49:00.378Z,33.60
2024-01-20T00:50:00.357Z,32.80
2024-01-20T00:51:00.246Z,35.30
2024-01-20T00:52:00.245Z,37.90
2024-01-20T00:53:00.259Z,35.10
2024-01-20T00:54:00.233Z,34.40
2024-01-20T00:55:00.971Z,32.80
2024-01-20T00:56:01.084Z,31.80
2024-01-20T00:57:00.174Z,34.50
2024-01-20T00:58:00.158Z,31.50
2024-01-20T00:59:00.166Z,33.50
2024-01-20T01:00:00.187Z,29.80
2024-01-20T01:01:00.175Z,33.30
2024-01-20T01:02:00.280Z,37.30
2024-01-20T01:03:00.171Z,36.10
2024-01-20T01:04:00.145Z,37.40
2024-01-20T01:05:00.113Z,33.10
2024-01-20T01:06:00.078Z,37.10
2024-01-20T01:07:00.873Z,38.30
2024-01-20T01:08:00.066Z,39.40
2024-01-20T01:09:00.034Z,40.60
2024-01-20T01:10:00.044Z,36.70
2024-01-20T01:11:00.026Z,33.60
2024-01-20T01:11:59.992Z,34.90
2024-01-20T01:12:59.983Z,32.70
2024-01-20T01:14:00.178Z,36.10
2024-01-20T01:15:00.006Z,35.60
2024-01-20T01:16:00.752Z,34.00
2024-01-20T01:17:00.036Z,34.00
2024-01-20T01:18:00.070Z,35.40
2024-01-20T01:18:59.948Z,33.10
2024-01-20T01:20:00.006Z,34.20
2024-01-20T01:20:59.919Z,29.20
2024-01-20T01:21:59.948Z,31.30
2024-01-20T01:23:00.026Z,30.30
2024-01-20T01:23:59.891Z,34.40
2024-01-20T01:24:59.856Z,33.70
2024-01-20T01:25:59.942Z,33.40
2024-01-20T01:26:59.933Z,31.00
2024-01-20T01:27:59.859Z,33.40
2024-01-20T01:28:59.893Z,32.20
2024-01-20T01:29:59.954Z,32.00
2024-01-20T01:30:59.882Z,37.20
2024-01-20T01:31:59.836Z,37.10
2024-01-20T01:32:59.809Z,34.40
2024-01-20T01:33:59.794Z,33.80
2024-01-20T01:34:59.807Z,32.90
2024-01-20T01:36:00.726Z,34.30
2024-01-20T01:36:59.734Z,35.70
2024-01-20T01:38:00.040Z,35.70
2024-01-20T01:38:59.750Z,37.50
2024-01-20T01:39:59.924Z,39.60
2024-01-20T01:40:59.907Z,37.60
2024-01-20T01:41:59.657Z,42.50
2024-01-20T01:42:59.664Z,41.80
2024-01-20T01:44:00.630Z,39.30
2024-01-20T01:44:59.666Z,36.80
2024-01-20T01:45:59.630Z,41.00
2024-01-20T01:46:59.632Z,44.40
2024-01-20T01:47:59.718Z,40.20
2024-01-20T01:48:59.620Z,43.60
2024-01-20T01:49:59.625Z,40.90
2024-01-20T01:50:59.569Z,41.30
2024-01-20T01:51:59.588Z,43.90
2024-01-20T01:52:59.537Z,40.80
2024-01-20T01:53:59.568Z,36.70
2024-01-20T01:54:59.527Z,40.60
2024-01-20T01:55:59.530Z,36.10
2024-01-20T01:57:00.311Z,42.30
2024-01-20T01:57:59.501Z,37.40
2024-01-20T01:58:59.586Z,36.60
2024-01-20T01:59:59.575Z,42.80
2024-01-20T02:00:59.502Z,43.10
2024-01-20T02:01:59.474Z,40.60
2024-01-20T02:02:59.515Z,38.20
2024-01-20T02:03:59.463Z,36.40
2024-01-20T02:04:59.415Z,37.10
2024-01-20T02:05:59.454Z,36.40
2024-01-20T02:06:59.413Z,35.20
2024-01-20T02:07:59.416Z,38.10
2024-01-20T02:08:59.427Z,35.80
2024-01-20T02:09:59.347Z,35.70
2024-01-20T02:10:59.339Z,35.30
2024-01-20T02:11:59.364Z,36.70
2024-01-20T02:12:59.313Z,35.40
2024-01-20T02:13:59.319Z,34.50
2024-01-20T02:14:59.328Z,34.60
2024-01-20T02:15:59.317Z,37.00
2024-01-20T02:16:59.307Z,38.20
2024-01-20T02:18:00.228Z,37.10
2024-01-20T02:18:59.292Z,38.90
2024-01-20T02:19:59.249Z,37.60
2024-01-20T02:20:59.340Z,38.40
2024-01-20T02:21:59.222Z,38.40
2024-01-20T02:22:59.206Z,39.00
2024-01-20T02:23:59.281Z,36.30
2024-01-20T02:24:59.174Z,39.20
2024-01-20T02:25:59.198Z,40.00
2024-01-20T02:26:59.247Z,36.30
2024-01-20T02:27:59.163Z,38.90
2024-01-20T02:28:59.159Z,39.20
2024-01-20T02:30:00.045Z,37.10
2024-01-20T02:30:59.160Z,34.30
2024-01-20T02:31:59.132Z,38.00
2024-01-20T02:32:59.234Z,36.40
2024-01-20T02:33:59.272Z,38.20
2024-01-20T02:34:59.103Z,40.30
2024-01-20T02:35:59.083Z,40.20
2024-01-20T02:36:59.866Z,40.90
2024-01-20T02:37:59.773Z,41.30
2024-01-20T02:38:59.105Z,43.30
2024-01-20T02:39:59.031Z,37.10
2024-01-20T02:40:59.017Z,36.40
2024-01-20T02:41:59.011Z,34.00
2024-01-20T02:42:59.000Z,37.50
2024-01-20T02:43:58.990Z,37.20
2024-01-20T02:44:59.000Z,39.80
2024-01-20T02:45:59.001Z,34.10
2024-01-20T02:46:58.961Z,35.20
2024-01-20T02:47:59.236Z,36.40
2024-01-20T02:48:59.033Z,34.60
2024-01-20T02:49:58.995Z,34.60
2024-01-20T02:50:59.091Z,34.70
2024-01-20T02:51:58.889Z,34.00
2024-01-20T02:52:58.909Z,34.90
2024-01-20T02:53:58.973Z,35.60
2024-01-20T02:54:58.994Z,36.60
2024-01-20T02:55:58.838Z,36.80
2024-01-20T02:56:58.898Z,34.40
2024-01-20T02:57:58.839Z,33.30
2024-01-20T02:58:58.825Z,30.70
2024-01-20T02:59:58.855Z,28.90
2024-01-20T03:00:58.819Z,33.50
2024-01-20T03:01:58.843Z,32.50
2024-01-20T03:02:58.813Z,31.20
2024-01-20T03:03:58.823Z,37.70
2024-01-20T03:04:58.775Z,35.80
2024-01-20T03:05:58.776Z,37.10
2024-01-20T03:06:58.746Z,41.40
2024-01-20T03:07:58.736Z,39.70
2024-01-20T03:08:58.757Z,39.90
2024-01-20T03:09:58.693Z,41.90
2024-01-20T03:10:58.687Z,43.10
2024-01-20T03:11:59.626Z,43.00
2024-01-20T03:12:58.696Z,43.40
2024-01-20T03:13:58.657Z,39.20
2024-01-20T03:14:58.697Z,37.60
2024-01-20T03:15:58.663Z,36.60
2024-01-20T03:16:58.659Z,37.40
2024-01-20T03:17:59.619Z,36.80
2024-01-20T03:18:59.450Z,37.80
2024-01-20T03:19:58.687Z,40.00
2024-01-20T03:20:58.630Z,37.00
2024-01-20T03:21:58.590Z,36.40
2024-01-20T03:22:58.573Z,36.90
2024-01-20T03:23:58.593Z,38.90
2024-01-20T03:24:58.576Z,38.10
2024-01-20T03:25:58.538Z,38.30
2024-01-20T03:26:59.803Z,40.50
2024-01-20T03:27:58.520Z,40.00
2024-01-20T03:28:58.494Z,41.90
2024-01-20T03:29:58.602Z,45.80
2024-01-20T03:30:58.474Z,40.90
2024-01-20T03:31:58.493Z,40.90
2024-01-20T03:32:58.651Z,38.10
2024-01-20T03:33:58.575Z,38.10
2024-01-20T03:34:58.434Z,39.90
2024-01-20T03:35:58.431Z,39.50
2024-01-20T03:36:58.438Z,37.20
2024-01-20T03:37:58.432Z,36.50
2024-01-20T03:38:58.483Z,36.70
2024-01-20T03:39:58.385Z,42.60
2024-01-20T03:40:58.373Z,36.00
2024-01-20T03:41:58.378Z,42.00
2024-01-20T03:42:58.349Z,38.10
2024-01-20T03:43:58.681Z,39.70
2024-01-20T03:44:58.356Z,39.80
2024-01-20T03:45:58.304Z,37.20
2024-01-20T03:46:58.304Z,38.60
2024-01-20T03:47:58.344Z,40.10
2024-01-20T03:48:58.394Z,39.10
2024-01-20T03:49:58.355Z,39.60
2024-01-20T03:50:58.291Z,38.60
2024-01-20T03:51:58.253Z,38.10
2024-01-20T03:52:58.275Z,39.10
2024-01-20T03:53:58.255Z,39.60
2024-01-20T03:54:58.225Z,42.30
2024-01-20T03:55:58.230Z,37.70
2024-01-20T03:56:58.317Z,38.70
2024-01-20T03:57:58.179Z,36.60
2024-01-20T03:58:58.193Z,36.50
2024-01-20T03:59:59.129Z,37.40
2024-01-20T04:00:58.204Z,34.00
2024-01-20T04:01:58.153Z,34.40
2024-01-20T04:02:58.176Z,36.60
2024-01-20T04:03:58.358Z,34.20
2024-01-20T04:04:58.135Z,34.70
2024-01-20T04:05:58.138Z,40.70
2024-01-20T04:06:58.106Z,39.00
2024-01-20T04:07:58.102Z,45.50
2024-01-20T04:08:58.079Z,40.70
2024-01-20T04:09:58.055Z,41.80
2024-01-20T04:10:58.069Z,39.10
2024-01-20T04:11:58.064Z,38.50
2024-01-20T04:12:58.050Z,40.40
2024-01-20T04:13:58.033Z,41.80
2024-01-20T04:14:58.063Z,42.20
2024-01-20T04:15:57.997Z,39.60
2024-01-20T04:16:57.973Z,42.60
2024-01-20T04:17:58.162Z,43.40
2024-01-20T04:18:58.087Z,45.70
2024-01-20T04:19:58.790Z,43.30
2024-01-20T04:20:57.949Z,47.40
2024-01-20T04:21:57.949Z,50.00
2024-01-20T04:22:57.922Z,43.60
2024-01-20T04:23:57.925Z,46.90
2024-01-20T04:24:57.895Z,43.30
2024-01-20T04:25:57.896Z,45.80
2024-01-20T04:26:57.921Z,47.90
2024-01-20T04:27:57.869Z,54.70
2024-01-20T04:28:57.849Z,51.70
2024-01-20T04:29:57.833Z,48.90
2024-01-20T04:30:57.832Z,52.30
2024-01-20T04:31:57.876Z,54.30
2024-01-20T04:32:57.929Z,47.70
2024-01-20T04:33:57.975Z,43.30
2024-01-20T04:34:57.822Z,40.30
2024-01-20T04:35:57.806Z,45.30
2024-01-20T04:36:57.797Z,60.50
2024-01-20T04:37:57.921Z,56.50
2024-01-20T04:38:57.781Z,48.30
2024-01-20T04:39:57.757Z,54.60
2024-01-20T04:40:57.797Z,63.90
2024-01-20T04:41:57.734Z,102.60
2024-01-20T04:42:57.682Z,69.70
2024-01-20T04:43:57.687Z,62.40
2024-01-20T04:44:57.781Z,89.60
2024-01-20T04:45:57.663Z,56.20
2024-01-20T04:46:57.662Z,81.40
2024-01-20T04:47:57.772Z,48.20
2024-01-20T04:48:57.693Z,53.50
2024-01-20T04:49:57.645Z,53.20
2024-01-20T04:50:57.660Z,48.80
2024-01-20T04:51:57.617Z,47.50
2024-01-20T04:52:57.602Z,50.20
2024-01-20T04:53:57.611Z,44.00
2024-01-20T04:54:57.576Z,47.40
2024-01-20T04:55:57.571Z,57.00
2024-01-20T04:56:57.551Z,48.70
2024-01-20T04:57:57.514Z,49.20
2024-01-20T04:58:57.501Z,55.10
2024-01-20T04:59:57.650Z,55.80
2024-01-20T05:00:57.607Z,51.90
2024-01-20T05:01:57.474Z,52.60
2024-01-20T05:02:57.516Z,51.30
2024-01-20T05:03:57.570Z,76.60
2024-01-20T05:04:57.439Z,48.20
2024-01-20T05:05:57.469Z,50.80
2024-01-20T05:06:57.584Z,63.30
2024-01-20T05:07:57.417Z,50.70
2024-01-20T05:08:57.418Z,40.80
2024-01-20T05:09:57.395Z,45.30
2024-01-20T05:10:57.387Z,42.70
2024-01-20T05:11:57.377Z,42.90
2024-01-20T05:12:57.380Z,39.60
2024-01-20T05:13:57.359Z,40.00
2024-01-20T05:14:57.504Z,41.10
2024-01-20T05:15:57.317Z,39.20
2024-01-20T05:16:57.329Z,40.40
2024-01-20T05:17:57.426Z,39.90
2024-01-20T05:18:57.445Z,42.20
2024-01-20T05:19:57.361Z,41.30
2024-01-20T05:20:57.308Z,35.10
2024-01-20T05:21:57.275Z,39.30
2024-01-20T05:22:57.260Z,39.20
2024-01-20T05:23:57.301Z,38.40
2024-01-20T05:24:57.229Z,32.80
2024-01-20T05:25:57.227Z,36.90
2024-01-20T05:26:57.237Z,33.20
2024-01-20T05:27:57.212Z,33.40
2024-01-20T05:28:57.180Z,33.00
2024-01-20T05:29:57.225Z,33.30
2024-01-20T05:30:57.167Z,32.90
2024-01-20T05:31:57.178Z,35.60
2024-01-20T05:32:57.298Z,34.90
2024-01-20T05:33:57.232Z,34.00
2024-01-20T05:34:57.119Z,39.80
2024-01-20T05:35:57.169Z,42.40
2024-01-20T05:36:57.096Z,39.90
2024-01-20T05:37:57.098Z,38.90
2024-01-20T05:38:57.126Z,45.20
2024-01-20T05:39:57.078Z,40.70
2024-01-20T05:40:57.071Z,48.90
2024-01-20T05:41:58.009Z,45.10
2024-01-20T05:42:57.034Z,46.10
2024-01-20T05:43:57.035Z,49.10
2024-01-20T05:44:57.071Z,42.50
2024-01-20T05:45:57.008Z,46.30
2024-01-20T05:46:57.009Z,47.40
2024-01-20T05:47:57.030Z,43.30
2024-01-20T05:48:57.195Z,46.30
2024-01-20T05:49:56.980Z,48.70
2024-01-20T05:50:57.007Z,49.50
2024-01-20T05:51:56.916Z,51.10
2024-01-20T05:52:56.925Z,56.90
2024-01-20T05:53:56.962Z,50.00
2024-01-20T05:54:56.910Z,57.20
2024-01-20T05:55:56.889Z,44.10
2024-01-20T05:56:57.071Z,51.70
2024-01-20T05:57:56.886Z,49.80
2024-01-20T05:58:56.896Z,53.30
2024-01-20T05:59:56.914Z,50.20
2024-01-20T06:00:56.887Z,51.50
2024-01-20T06:01:57.640Z,43.90
2024-01-20T06:02:57.757Z,46.00
2024-01-20T06:03:56.894Z,47.50
2024-01-20T06:04:56.822Z,47.90
2024-01-20T06:05:56.795Z,51.30
2024-01-20T06:06:56.790Z,47.50
2024-01-20T06:07:57.546Z,45.30
2024-01-20T06:08:56.798Z,45.40
2024-01-20T06:09:56.762Z,52.70
2024-01-20T06:10:56.765Z,49.10
2024-01-20T06:11:56.733Z,46.40
2024-01-20T06:12:56.702Z,48.90
2024-01-20T06:13:56.705Z,48.40
2024-01-20T06:14:56.765Z,47.30
2024-01-20T06:15:56.723Z,52.50
2024-01-20T06:16:56.678Z,43.90
2024-01-20T06:17:56.757Z,42.40
2024-01-20T06:18:56.696Z,47.20
2024-01-20T06:19:56.627Z,49.60
2024-01-20T06:20:56.684Z,48.70
2024-01-20T06:21:56.621Z,43.50
2024-01-20T06:22:57.382Z,48.80
2024-01-20T06:23:57.657Z,45.80
2024-01-20T06:24:56.619Z,45.80
2024-01-20T06:25:57.940Z,46.20
2024-01-20T06:26:56.656Z,51.60
2024-01-20T06:27:56.593Z,45.70
2024-01-20T06:28:56.548Z,46.40
2024-01-20T06:29:56.548Z,42.00
2024-01-20T06:30:56.617Z,45.50
2024-01-20T06:31:57.302Z,44.00
2024-01-20T06:32:56.696Z,42.20
2024-01-20T06:33:56.654Z,39.80
2024-01-20T06:34:56.516Z,46.80
2024-01-20T06:35:56.828Z,43.80
2024-01-20T06:36:57.978Z,43.40
2024-01-20T06:37:56.443Z,39.10
2024-01-20T06:38:56.457Z,39.60
2024-01-20T06:39:56.460Z,44.20
2024-01-20T06:40:56.431Z,45.10
2024-01-20T06:41:56.501Z,44.70
2024-01-20T06:42:57.255Z,42.40
2024-01-20T06:43:56.411Z,44.40
2024-01-20T06:44:58.004Z,39.30
2024-01-20T06:45:56.345Z,45.60
2024-01-20T06:46:56.590Z,44.60
2024-01-20T06:47:56.491Z,40.90
2024-01-20T06:48:56.441Z,39.50
2024-01-20T06:49:56.304Z,37.80
2024-01-20T06:50:56.335Z,38.70
2024-01-20T06:51:56.711Z,39.40
2024-01-20T06:52:57.070Z,39.60
2024-01-20T06:53:56.297Z,41.20
2024-01-20T06:54:56.260Z,38.10
2024-01-20T06:55:56.233Z,44.00
2024-01-20T06:56:56.275Z,40.30
2024-01-20T06:57:56.261Z,43.80
2024-01-20T06:58:57.757Z,38.20
2024-01-20T06:59:56.217Z,40.60
2024-01-20T07:00:56.243Z,50.60
2024-01-20T07:01:56.182Z,39.60
2024-01-20T07:02:56.254Z,37.00
2024-01-20T07:03:57.078Z,36.40
2024-01-20T07:04:56.145Z,33.80
2024-01-20T07:05:56.216Z,37.10
2024-01-20T07:06:56.119Z,36.10
2024-01-20T07:07:56.129Z,35.30
2024-01-20T07:08:56.367Z,34.80
2024-01-20T07:09:56.073Z,32.50
2024-01-20T07:10:56.183Z,32.50
2024-01-20T07:11:56.129Z,33.90
2024-01-20T07:12:56.067Z,34.00
2024-01-20T07:13:56.064Z,37.80
2024-01-20T07:14:56.094Z,29.80
2024-01-20T07:15:56.015Z,34.40
2024-01-20T07:16:56.016Z,31.80
2024-01-20T07:17:56.086Z,29.90
2024-01-20T07:18:56.437Z,32.90
2024-01-20T07:19:56.036Z,40.70
2024-01-20T07:20:56.001Z,43.90
2024-01-20T07:21:55.961Z,39.70
2024-01-20T07:22:56.778Z,36.40
2024-01-20T07:23:58.448Z,36.10
2024-01-20T07:24:56.002Z,47.70
2024-01-20T07:25:55.953Z,51.40
2024-01-20T07:26:55.944Z,38.40
2024-01-20T07:27:55.924Z,40.30
2024-01-20T07:28:56.998Z,40.10
2024-01-20T07:29:56.203Z,36.00
2024-01-20T07:30:55.866Z,39.60
2024-01-20T07:31:55.873Z,46.00
2024-01-20T07:32:55.935Z,46.00
2024-01-20T07:33:55.909Z,43.70
2024-01-20T07:34:55.863Z,43.30
2024-01-20T07:35:55.932Z,44.90
2024-01-20T07:36:55.852Z,45.80
2024-01-20T07:37:55.801Z,47.30
2024-01-20T07:38:55.816Z,47.50
2024-01-20T07:39:55.761Z,43.20
2024-01-20T07:40:55.754Z,46.20
2024-01-20T07:41:55.832Z,44.10
2024-01-20T07:42:55.706Z,48.30
2024-01-20T07:43:56.420Z,44.90
2024-01-20T07:44:55.993Z,40.30
2024-01-20T07:45:55.710Z,43.00
2024-01-20T07:46:55.697Z,45.40
2024-01-20T07:47:55.736Z,39.00
2024-01-20T07:48:55.773Z,39.00
2024-01-20T07:49:55.667Z,36.10
2024-01-20T07:50:55.722Z,32.60
2024-01-20T07:51:55.670Z,31.80
2024-01-20T07:52:55.615Z,34.90
2024-01-20T07:53:55.650Z,31.00
2024-01-20T07:54:55.613Z,29.70
2024-01-20T07:55:55.594Z,27.70
2024-01-20T07:56:55.633Z,34.80
2024-01-20T07:57:55.896Z,29.30
2024-01-20T07:58:55.569Z,30.10
2024-01-20T07:59:55.581Z,29.90
2024-01-20T08:00:55.635Z,30.50
2024-01-20T08:01:55.547Z,31.10
2024-01-20T08:02:55.585Z,33.80
2024-01-20T08:03:56.449Z,30.70
2024-01-20T08:04:56.293Z,30.80
2024-01-20T08:05:55.642Z,28.90
2024-01-20T08:06:55.582Z,31.00
2024-01-20T08:07:55.508Z,28.20
2024-01-20T08:08:55.538Z,34.00
2024-01-20T08:09:55.450Z,33.20
2024-01-20T08:10:55.410Z,35.90
2024-01-20T08:11:55.434Z,38.50
2024-01-20T08:12:55.394Z,33.40
2024-01-20T08:13:55.400Z,42.30
2024-01-20T08:14:55.443Z,43.50
2024-01-20T08:15:55.372Z,34.00
2024-01-20T08:16:55.366Z,36.30
2024-01-20T08:17:55.530Z,34.60
2024-01-20T08:18:55.439Z,34.40
2024-01-20T08:19:55.351Z,35.90
2024-01-20T08:20:55.505Z,37.40
2024-01-20T08:21:55.310Z,36.30
2024-01-20T08:22:55.292Z,33.80
2024-01-20T08:23:55.811Z,33.40
2024-01-20T08:24:55.271Z,33.90
2024-01-20T08:25:55.284Z,32.10
2024-01-20T08:26:55.344Z,33.40
2024-01-20T08:27:55.225Z,38.40
2024-01-20T08:28:55.209Z,32.50
2024-01-20T08:29:55.246Z,32.90
2024-01-20T08:30:55.248Z,35.70
2024-01-20T08:31:55.195Z,33.50
2024-01-20T08:32:56.331Z,36.00
2024-01-20T08:33:55.289Z,32.30
2024-01-20T08:34:55.178Z,39.10
2024-01-20T08:35:55.226Z,36.00
2024-01-20T08:36:55.124Z,35.10
2024-01-20T08:37:55.130Z,38.00
2024-01-20T08:38:55.138Z,34.60
2024-01-20T08:39:55.130Z,35.20
2024-01-20T08:40:55.085Z,33.00
2024-01-20T08:41:55.161Z,33.80
2024-01-20T08:42:55.103Z,31.70
2024-01-20T08:43:55.045Z,33.80
2024-01-20T08:44:55.785Z,36.30
2024-01-20T08:45:55.968Z,32.50
2024-01-20T08:46:55.027Z,33.20
2024-01-20T08:47:55.048Z,32.00
2024-01-20T08:48:55.047Z,30.40
2024-01-20T08:49:55.010Z,34.90
2024-01-20T08:50:55.027Z,33.80
2024-01-20T08:51:54.981Z,35.00
2024-01-20T08:52:55.021Z,33.80
2024-01-20T08:53:54.972Z,33.00
2024-01-20T08:54:54.959Z,34.90
2024-01-20T08:55:54.932Z,36.40
2024-01-20T08:56:54.938Z,36.50
2024-01-20T08:57:54.944Z,36.70
2024-01-20T08:58:55.097Z,39.80
2024-01-20T08:59:55.026Z,39.90
2024-01-20T09:00:54.984Z,34.80
2024-01-20T09:01:54.871Z,38.20
2024-01-20T09:02:54.912Z,36.50
2024-01-20T09:03:54.973Z,37.80
2024-01-20T09:04:54.827Z,34.20
2024-01-20T09:05:55.655Z,38.40
2024-01-20T09:06:55.840Z,37.60
2024-01-20T09:07:54.803Z,36.10
2024-01-20T09:08:54.845Z,30.90
2024-01-20T09:09:55.371Z,34.40
2024-01-20T09:10:54.773Z,32.00
2024-01-20T09:11:54.764Z,33.00
2024-01-20T09:12:54.726Z,33.80
2024-01-20T09:13:54.739Z,37.40
2024-01-20T09:14:54.798Z,32.30
2024-01-20T09:15:54.875Z,34.20
2024-01-20T09:16:54.703Z,40.00
2024-01-20T09:17:54.741Z,39.60
2024-01-20T09:18:54.785Z,37.00
2024-01-20T09:19:54.851Z,35.00
2024-01-20T09:20:54.669Z,36.90
2024-01-20T09:21:54.644Z,34.90
2024-01-20T09:22:54.631Z,36.50
2024-01-20T09:23:54.755Z,33.50
2024-01-20T09:24:54.605Z,30.70
2024-01-20T09:25:54.806Z,32.00
2024-01-20T09:26:54.625Z,29.40
2024-01-20T09:27:54.622Z,24.60
2024-01-20T09:28:54.551Z,23.40
2024-01-20T09:29:54.518Z,25.10
2024-01-20T09:30:54.605Z,25.50
2024-01-20T09:31:54.553Z,25.40
2024-01-20T09:32:54.705Z,24.30
2024-01-20T09:33:54.557Z,26.20
2024-01-20T09:34:54.513Z,28.00
2024-01-20T09:35:54.494Z,26.70
2024-01-20T09:36:54.486Z,29.30
2024-01-20T09:37:54.500Z,29.30
2024-01-20T09:38:54.583Z,29.30
2024-01-20T09:39:54.422Z,29.10
2024-01-20T09:40:54.429Z,29.40
2024-01-20T09:41:54.449Z,26.80
2024-01-20T09:42:54.434Z,28.50
2024-01-20T09:43:54.371Z,28.60
2024-01-20T09:44:54.380Z,27.00
2024-01-20T09:45:54.388Z,29.30
2024-01-20T09:46:54.355Z,33.40
2024-01-20T09:47:54.532Z,27.60
2024-01-20T09:48:54.458Z,29.10
2024-01-20T09:49:54.365Z,30.20
2024-01-20T09:50:54.309Z,32.80
2024-01-20T09:51:54.512Z,33.70
2024-01-20T09:52:54.256Z,29.00
2024-01-20T09:53:54.256Z,29.40
2024-01-20T09:54:54.308Z,31.30
2024-01-20T09:55:54.272Z,29.10
2024-01-20T09:56:54.238Z,26.10
2024-01-20T09:57:54.223Z,31.30
2024-01-20T09:58:54.227Z,30.70
2024-01-20T09:59:54.237Z,28.20
2024-01-20T10:00:54.392Z,29.20
2024-01-20T10:01:54.208Z,28.40
2024-01-20T10:02:54.166Z,28.20
2024-01-20T10:03:54.246Z,25.40
2024-01-20T10:04:54.225Z,25.10
2024-01-20T10:05:54.205Z,25.10
2024-01-20T10:06:55.065Z,27.10
2024-01-20T10:07:54.556Z,25.50
2024-01-20T10:08:54.102Z,27.70
2024-01-20T10:09:54.085Z,25.80
2024-01-20T10:10:54.041Z,27.60
2024-01-20T10:11:54.142Z,25.90
2024-01-20T10:12:54.127Z,26.20
2024-01-20T10:13:54.055Z,25.20
2024-01-20T10:14:54.046Z,23.00
2024-01-20T10:15:54.094Z,26.90
2024-01-20T10:16:54.003Z,26.10
2024-01-20T10:17:54.102Z,25.80
2024-01-20T10:18:54.027Z,27.10
2024-01-20T10:19:54.075Z,28.90
2024-01-20T10:20:54.283Z,27.70
2024-01-20T10:21:53.975Z,26.40
2024-01-20T10:22:53.937Z,27.40
2024-01-20T10:23:53.970Z,27.20
2024-01-20T10:24:53.931Z,27.20
2024-01-20T10:25:53.951Z,28.10
2024-01-20T10:26:53.942Z,28.80
2024-01-20T10:27:54.458Z,26.50
2024-01-20T10:28:53.909Z,27.30
2024-01-20T10:29:53.944Z,27.20
2024-01-20T10:30:54.035Z,26.50
2024-01-20T10:31:53.871Z,23.50
2024-01-20T10:33:04.043Z,25.60
2024-01-20T10:33:54.874Z,25.60
2024-01-20T10:34:53.999Z,24.70
2024-01-20T10:35:53.803Z,26.90
2024-01-20T10:36:53.840Z,27.20
2024-01-20T10:37:53.826Z,25.30
2024-01-20T10:38:53.813Z,24.50
2024-01-20T10:39:53.816Z,25.50
2024-01-20T10:40:54.649Z,22.90
2024-01-20T10:41:53.812Z,23.90
2024-01-20T10:42:53.871Z,23.40
2024-01-20T10:43:53.784Z,23.20
2024-01-20T10:44:53.731Z,26.10
2024-01-20T10:45:53.809Z,24.30
2024-01-20T10:46:53.700Z,26.70
2024-01-20T10:47:54.569Z,23.60
2024-01-20T10:48:53.874Z,24.70
2024-01-20T10:49:53.743Z,28.60
2024-01-20T10:50:53.634Z,26.20
2024-01-20T10:51:53.805Z,26.30
2024-01-20T10:52:53.657Z,24.30
2024-01-20T10:53:53.695Z,21.10
2024-01-20T10:54:53.622Z,24.20
2024-01-20T10:55:53.589Z,21.10
2024-01-20T10:56:53.681Z,21.20
2024-01-20T10:57:53.568Z,21.60
2024-01-20T10:58:53.579Z,20.60
2024-01-20T10:59:53.570Z,20.80
2024-01-20T11:00:53.547Z,20.10
2024-01-20T11:01:53.529Z,18.80
2024-01-20T11:02:53.526Z,20.10
2024-01-20T11:03:54.317Z,19.10
2024-01-20T11:04:53.500Z,20.30
2024-01-20T11:05:53.617Z,18.30
2024-01-20T11:06:53.501Z,19.00
2024-01-20T11:07:53.523Z,20.50
2024-01-20T11:08:54.198Z,19.60
2024-01-20T11:09:54.425Z,19.50
2024-01-20T11:10:53.458Z,20.20
2024-01-20T11:11:53.422Z,19.80
2024-01-20T11:12:53.413Z,19.60
2024-01-20T11:13:53.408Z,18.80
2024-01-20T11:14:53.441Z,20.50
2024-01-20T11:15:53.403Z,18.20
2024-01-20T11:16:53.352Z,17.60
2024-01-20T11:17:54.395Z,19.60
2024-01-20T11:18:53.448Z,19.70
2024-01-20T11:19:53.429Z,18.50
2024-01-20T11:20:53.376Z,19.40
2024-01-20T11:21:53.343Z,18.60
2024-01-20T11:22:53.360Z,18.10
2024-01-20T11:23:53.285Z,17.80
2024-01-20T11:24:53.336Z,18.60
2024-01-20T11:25:53.285Z,17.30
2024-01-20T11:26:53.315Z,16.90
2024-01-20T11:27:53.420Z,16.90
2024-01-20T11:28:53.341Z,19.30
2024-01-20T11:29:53.254Z,18.10
2024-01-20T11:30:53.347Z,19.30
2024-01-20T11:31:53.217Z,17.30
2024-01-20T11:32:53.231Z,16.40
2024-01-20T11:33:53.327Z,18.70
2024-01-20T11:34:53.250Z,18.60
2024-01-20T11:35:53.484Z,21.00
2024-01-20T11:36:53.202Z,18.90
2024-01-20T11:37:53.162Z,19.70
2024-01-20T11:38:53.147Z,17.80
2024-01-20T11:39:53.148Z,19.60
2024-01-20T11:40:53.154Z,20.30
2024-01-20T11:41:53.105Z,19.90
2024-01-20T11:42:53.139Z,20.20
2024-01-20T11:43:53.096Z,19.00
2024-01-20T11:44:53.087Z,20.60
2024-01-20T11:45:53.093Z,19.40
2024-01-20T11:46:53.027Z,17.70
2024-01-20T11:47:53.885Z,20.00
2024-01-20T11:48:53.835Z,18.10
2024-01-20T11:49:53.129Z,19.20
2024-01-20T11:50:53.005Z,18.90
2024-01-20T11:51:52.994Z,19.90
2024-01-20T11:52:52.947Z,19.90
2024-01-20T11:53:53.122Z,18.60
2024-01-20T11:54:52.952Z,17.20
2024-01-20T11:55:53.399Z,17.80
2024-01-20T11:56:52.917Z,19.80
2024-01-20T11:57:52.921Z,19.40
2024-01-20T11:58:52.888Z,17.90
2024-01-20T11:59:52.893Z,18.20
2024-01-20T12:00:53.798Z,20.90
2024-01-20T12:01:52.955Z,16.90
2024-01-20T12:02:52.919Z,18.40
2024-01-20T12:03:52.866Z,17.90
2024-01-20T12:04:57.500Z,20.20
2024-01-20T12:05:54.002Z,18.50
2024-01-20T12:06:52.974Z,19.00
2024-01-20T12:07:52.793Z,17.70
2024-01-20T12:08:52.885Z,16.70
2024-01-20T12:09:53.517Z,16.80
2024-01-20T12:10:53.684Z,17.00
2024-01-20T12:11:52.761Z,17.70
2024-01-20T12:12:52.764Z,16.50
2024-01-20T12:13:52.738Z,18.00
2024-01-20T12:14:52.734Z,19.00
2024-01-20T12:15:52.712Z,17.60
2024-01-20T12:16:52.691Z,16.00
2024-01-20T12:17:52.744Z,18.10
2024-01-20T12:18:52.833Z,17.00
2024-01-20T12:19:52.701Z,17.30
2024-01-20T12:20:52.751Z,17.90
2024-01-20T12:21:52.646Z,19.40
2024-01-20T12:22:52.641Z,16.30
2024-01-20T12:23:52.621Z,20.00
2024-01-20T12:24:52.624Z,19.60
2024-01-20T12:25:52.615Z,17.00
2024-01-20T12:26:52.591Z,17.40
2024-01-20T12:27:52.588Z,17.60
2024-01-20T12:28:52.708Z,16.90
2024-01-20T12:29:53.394Z,19.40
2024-01-20T12:30:52.577Z,20.40
2024-01-20T12:31:52.526Z,16.60
2024-01-20T12:32:52.683Z,17.90
2024-01-20T12:33:52.624Z,17.60
2024-01-20T12:34:52.574Z,17.70
2024-01-20T12:35:52.491Z,17.10
2024-01-20T12:36:52.477Z,17.80
2024-01-20T12:37:52.478Z,18.70
2024-01-20T12:38:52.454Z,16.90
2024-01-20T12:39:52.425Z,18.00
2024-01-20T12:40:52.496Z,15.80
2024-01-20T12:41:52.483Z,19.50
2024-01-20T12:42:52.397Z,18.00
2024-01-20T12:43:52.448Z,19.80
2024-01-20T12:44:52.772Z,19.00
2024-01-20T12:45:52.476Z,19.30
2024-01-20T12:46:52.460Z,18.20
2024-01-20T12:47:52.493Z,16.30
2024-01-20T12:48:52.481Z,16.80
2024-01-20T12:49:52.497Z,16.80
2024-01-20T12:50:52.947Z,17.10
2024-01-20T12:51:52.305Z,17.80